Time;durP1;ratioP1;P1;durP2;ratioP2;P2;SDS_P1;SDS_P2;PMS_P1;PMS_P2;Temp;Humidity;BMP_temperature;BMP_pressure;BME280_temperature;BME280_humidity;BME280_pressure;Samples;Min_cycle;Max_cycle;Signal;HPM_P1;HPM_P2
2022/02/27 00:02:10;;;;;;;;;4.00;4.00;;;;;20.44;31.89;102279.91;5063136;28;51201;-50
2022/02/27 00:04:35;;;;;;;;;4.00;3.00;;;;;20.40;32.17;102274.94;5063780;27;51223;-49
2022/02/27 00:07:01;;;;;;;;;3.50;3.00;;;;;20.37;32.22;102280.81;5060067;27;50911;-53
2022/02/27 00:09:29;;;;;;;;;3.00;3.00;;;;;20.33;32.08;102273.97;5060229;28;52457;-53
2022/02/27 00:11:54;;;;;;;;;3.00;3.00;;;;;20.29;32.35;102275.38;5066107;27;51161;-50
2022/02/27 00:14:19;;;;;;;;;3.25;3.00;;;;;20.25;32.13;102276.81;5059558;27;51116;-50
2022/02/27 00:16:45;;;;;;;;;4.00;4.00;;;;;20.21;32.35;102275.44;5062557;28;51049;-50
2022/02/27 00:19:10;;;;;;;;;4.00;4.00;;;;;20.17;32.57;102281.34;5057426;28;51128;-50
2022/02/27 00:21:36;;;;;;;;;2.00;2.00;;;;;20.13;32.28;102282.75;5069256;28;51059;-49
2022/02/27 00:24:01;;;;;;;;;3.75;3.75;;;;;20.09;32.50;102277.78;5060263;28;51134;-49
2022/02/27 00:26:26;;;;;;;;;4.75;4.00;;;;;20.05;32.30;102281.97;5061688;28;51026;-51
2022/02/27 00:28:52;;;;;;;;;4.25;2.00;;;;;20.01;32.48;102284.25;5068203;27;51082;-47
2022/02/27 00:31:17;;;;;;;;;3.00;3.00;;;;;19.98;32.35;102281.84;5061661;27;51149;-51
2022/02/27 00:33:42;;;;;;;;;3.50;3.50;;;;;19.94;32.67;102285.16;5064908;28;51126;-52
2022/02/27 00:36:09;;;;;;;;;4.25;3.75;;;;;19.91;32.91;102286.38;5076520;28;50906;-51
2022/02/27 00:38:35;;;;;;;;;3.00;3.00;;;;;19.87;32.33;102279.53;5077107;27;50997;-52
2022/02/27 00:41:00;;;;;;;;;4.00;2.50;;;;;19.83;32.85;102279.03;5076931;27;51135;-52
2022/02/27 00:43:26;;;;;;;;;4.00;4.00;;;;;19.80;32.69;102273.03;5071761;28;50968;-52
2022/02/27 00:45:51;;;;;;;;;5.00;3.25;;;;;19.77;32.32;102276.16;5057563;28;51358;-53
2022/02/27 00:48:16;;;;;;;;;2.75;2.50;;;;;19.73;33.03;102270.19;5056804;28;51724;-52
2022/02/27 00:50:42;;;;;;;;;4.00;3.00;;;;;19.69;32.87;102263.31;5068049;28;51184;-51
2022/02/27 00:53:08;;;;;;;;;4.00;3.25;;;;;19.67;32.53;102264.56;5075368;27;51003;-50
2022/02/27 00:55:34;;;;;;;;;4.00;3.25;;;;;19.62;32.69;102269.75;5064085;28;51386;-51
2022/02/27 00:57:59;;;;;;;;;3.75;3.75;;;;;19.57;32.66;102279.38;5056612;28;51061;-48
2022/02/27 01:00:25;;;;;;;;;3.50;3.50;;;;;19.56;32.70;102285.06;5056967;28;51171;-53
2022/02/27 01:02:50;;;;;;;;;3.00;2.75;;;;;19.53;32.65;102286.25;5059327;28;50976;-52
2022/02/27 01:05:16;;;;;;;;;2.75;2.75;;;;;19.49;33.02;102279.44;5075144;28;51190;-52
2022/02/27 01:07:41;;;;;;;;;4.00;4.00;;;;;19.47;32.83;102277.88;5077032;28;51037;-52
2022/02/27 01:10:07;;;;;;;;;3.00;3.00;;;;;19.45;32.94;102279.97;5077480;28;51102;-54
2022/02/27 01:12:32;;;;;;;;;2.75;2.75;;;;;19.42;33.11;102281.19;5076171;28;51006;-51
2022/02/27 01:14:57;;;;;;;;;3.75;3.00;;;;;19.40;32.93;102283.25;5057319;28;50949;-48
2022/02/27 01:17:23;;;;;;;;;4.00;3.50;;;;;19.37;32.90;102280.84;5056567;28;50991;-51
2022/02/27 01:19:49;;;;;;;;;3.50;3.00;;;;;19.35;32.77;102271.09;5057063;28;51143;-55
2022/02/27 01:22:15;;;;;;;;;3.00;3.00;;;;;19.31;33.03;102270.59;5072754;28;51124;-50
2022/02/27 01:24:40;;;;;;;;;4.00;4.00;;;;;19.29;32.87;102273.53;5076791;27;50965;-53
2022/02/27 01:27:06;;;;;;;;;4.50;3.25;;;;;19.27;32.94;102277.47;5076000;28;50940;-49
2022/02/27 01:29:32;;;;;;;;;3.75;3.75;;;;;19.24;32.83;102262.22;5086245;27;51422;-48
2022/02/27 01:31:57;;;;;;;;;3.00;3.00;;;;;19.22;33.00;102257.94;5097087;27;51169;-51
2022/02/27 01:34:23;;;;;;;;;3.00;2.50;;;;;19.20;32.80;102258.13;5078574;27;51080;-51
2022/02/27 01:36:48;;;;;;;;;5.00;3.00;;;;;19.16;32.91;102248.50;5075663;28;52245;-52
2022/02/27 01:39:13;;;;;;;;;3.00;3.00;;;;;19.15;32.95;102252.31;5076382;27;51064;-52
2022/02/27 01:41:39;;;;;;;;;4.50;3.00;;;;;19.13;33.13;102261.75;5092809;27;51262;-51
2022/02/27 01:44:04;;;;;;;;;2.75;2.75;;;;;19.10;32.96;102257.50;5058623;27;51360;-53
2022/02/27 01:46:30;;;;;;;;;4.75;3.50;;;;;19.09;33.17;102253.03;5056784;28;51861;-53
2022/02/27 01:48:55;;;;;;;;;4.00;3.00;;;;;19.07;32.91;102237.75;5056357;28;51069;-51
2022/02/27 01:51:20;;;;;;;;;4.00;3.50;;;;;19.05;33.17;102243.41;5065349;28;51160;-51
2022/02/27 01:53:47;;;;;;;;;4.25;3.75;;;;;19.02;33.38;102241.91;5061421;27;50967;-53
2022/02/27 01:56:13;;;;;;;;;4.25;1.75;;;;;19.00;33.15;102251.34;5056201;28;52039;-53
2022/02/27 01:58:39;;;;;;;;;4.00;4.00;;;;;18.99;33.19;102256.00;5056546;28;50981;-54
2022/02/27 02:01:04;;;;;;;;;3.00;2.75;;;;;18.98;33.11;102243.31;5057037;28;51270;-48
2022/02/27 02:03:29;;;;;;;;;3.25;2.50;;;;;18.96;33.18;102253.59;5056061;28;50979;-52
2022/02/27 02:05:55;;;;;;;;;5.00;4.00;;;;;18.96;33.22;102249.97;5056014;28;51784;-52
2022/02/27 02:08:20;;;;;;;;;6.00;4.50;;;;;18.92;33.20;102252.25;5056512;28;50944;-54
2022/02/27 02:10:46;;;;;;;;;4.00;4.00;;;;;18.91;33.16;102239.53;5056555;28;51166;-49
2022/02/27 02:13:11;;;;;;;;;3.00;3.00;;;;;18.89;33.25;102238.88;5066958;28;51164;-49
2022/02/27 02:15:37;;;;;;;;;5.25;3.00;;;;;18.88;33.22;102239.91;5075387;28;50980;-49
2022/02/27 02:18:06;;;;;;;;;4.00;4.00;;;;;18.87;33.28;102240.09;5069322;28;51187;-51
2022/02/27 02:20:32;;;;;;;;;5.50;3.00;;;;;18.85;33.35;102242.13;5076521;27;51088;-47
2022/02/27 02:22:57;;;;;;;;;3.00;3.00;;;;;18.82;33.24;102235.13;5068166;27;51025;-50
2022/02/27 02:25:23;;;;;;;;;3.00;3.00;;;;;18.82;33.32;102228.78;5056080;28;51889;-48
2022/02/27 02:27:48;;;;;;;;;4.00;3.00;;;;;18.81;33.34;102229.81;5056116;28;50950;-48
2022/02/27 02:30:13;;;;;;;;;4.00;4.00;;;;;18.78;33.29;102216.44;5086225;27;50979;-51
2022/02/27 02:32:54;;;;;;;;;5.25;3.50;;;;;18.77;33.26;102225.72;5076907;27;51128;-48
2022/02/27 02:35:20;;;;;;;;;5.25;3.00;;;;;18.75;33.51;102225.88;5075478;27;52523;-50
2022/02/27 02:37:46;;;;;;;;;2.75;2.75;;;;;18.73;33.25;102214.22;5062352;28;51143;-50
2022/02/27 02:40:12;;;;;;;;;3.00;2.75;;;;;18.72;33.39;102209.75;5055937;28;51176;-51
2022/02/27 02:42:43;;;;;;;;;3.75;2.50;;;;;18.70;33.22;102226.41;5056528;28;51094;-50
2022/02/27 02:45:10;;;;;;;;;2.00;2.00;;;;;18.70;33.31;102225.56;5055520;28;51962;-51
2022/02/27 02:47:42;;;;;;;;;3.00;2.75;;;;;18.67;33.49;102220.44;5055927;28;51359;-48
2022/02/27 02:50:10;;;;;;;;;2.00;2.00;;;;;18.67;33.39;102225.94;5054798;28;51240;-50
2022/02/27 02:52:35;;;;;;;;;3.25;2.00;;;;;18.66;33.30;102221.47;5057947;28;51531;-49
2022/02/27 02:55:03;;;;;;;;;3.25;3.25;;;;;18.65;33.42;102230.72;5055661;28;51068;-48
2022/02/27 02:57:29;;;;;;;;;3.00;3.00;;;;;18.64;33.50;102226.22;5055620;28;51544;-51
2022/02/27 02:59:54;;;;;;;;;2.00;2.00;;;;;18.63;33.25;102230.00;5055706;28;51697;-51
2022/02/27 03:02:20;;;;;;;;;3.00;2.00;;;;;18.61;33.54;102221.09;5061461;28;50993;-51
2022/02/27 03:04:45;;;;;;;;;4.25;2.50;;;;;18.59;33.47;102224.03;5075197;28;50903;-49
2022/02/27 03:07:10;;;;;;;;;3.25;1.75;;;;;18.58;33.31;102216.84;5073899;28;51006;-51
2022/02/27 03:09:36;;;;;;;;;2.25;1.75;;;;;18.57;33.28;102217.88;5075681;28;51058;-48
2022/02/27 03:12:05;;;;;;;;;2.00;1.00;;;;;18.56;33.49;102223.53;5072253;28;51139;-50
2022/02/27 03:14:30;;;;;;;;;3.00;3.00;;;;;18.56;33.69;102224.38;5055980;28;52129;-51
2022/02/27 03:16:56;;;;;;;;;3.00;2.50;;;;;18.54;33.73;102225.56;5054857;28;50985;-50
2022/02/27 03:19:21;;;;;;;;;0.75;0.75;;;;;18.54;33.64;102220.94;5055667;28;51052;-51
2022/02/27 03:21:47;;;;;;;;;1.75;1.75;;;;;18.52;33.49;102219.41;5061844;28;51081;-50
2022/02/27 03:24:12;;;;;;;;;2.50;2.50;;;;;18.51;33.48;102225.94;5055350;28;51185;-53
2022/02/27 03:26:37;;;;;;;;;5.75;3.00;;;;;18.51;33.51;102214.97;5055246;28;51048;-54
2022/02/27 03:29:03;;;;;;;;;4.75;2.00;;;;;18.48;33.60;102210.69;5065584;27;51481;-53
2022/02/27 03:31:28;;;;;;;;;2.00;2.00;;;;;18.48;33.65;102210.69;5095936;27;50909;-49
2022/02/27 03:33:54;;;;;;;;;2.75;2.75;;;;;18.45;33.61;102211.91;5058861;27;51268;-51
2022/02/27 03:36:19;;;;;;;;;3.00;3.00;;;;;18.45;33.91;102214.66;5055292;28;51057;-51
2022/02/27 03:38:45;;;;;;;;;2.50;2.50;;;;;18.46;33.55;102207.28;5069625;28;51026;-50
2022/02/27 03:41:10;;;;;;;;;3.50;3.00;;;;;18.45;33.54;102203.66;5075637;28;50935;-53
2022/02/27 03:43:36;;;;;;;;;3.25;3.00;;;;;18.44;33.60;102209.31;5066147;28;51541;-49
2022/02/27 03:46:02;;;;;;;;;3.00;3.00;;;;;18.44;33.71;102217.53;5055358;28;51027;-52
2022/02/27 03:48:27;;;;;;;;;2.50;2.00;;;;;18.42;33.78;102217.72;5055252;28;51001;-51
2022/02/27 03:50:52;;;;;;;;;3.25;3.25;;;;;18.41;33.54;102216.00;5055022;28;51195;-53
2022/02/27 03:53:18;;;;;;;;;2.75;2.75;;;;;18.40;33.72;102219.78;5057505;28;51950;-53
2022/02/27 03:55:44;;;;;;;;;3.00;3.00;;;;;18.39;33.52;102219.97;5055276;28;51100;-52
2022/02/27 03:58:09;;;;;;;;;3.50;2.50;;;;;18.38;33.46;102229.22;5055191;28;51184;-50
2022/02/27 04:00:35;;;;;;;;;3.00;3.00;;;;;18.37;33.41;102220.16;5069636;28;51027;-52
2022/02/27 04:03:00;;;;;;;;;2.00;2.00;;;;;18.36;33.50;102234.91;5068009;28;52783;-50
2022/02/27 04:05:25;;;;;;;;;3.00;3.00;;;;;18.36;33.57;102239.53;5058442;28;51097;-47
2022/02/27 04:07:51;;;;;;;;;3.25;3.00;;;;;18.35;33.70;102240.56;5061586;28;51129;-52
2022/02/27 04:10:16;;;;;;;;;3.00;2.25;;;;;18.33;33.59;102232.47;5079141;28;51366;-52
2022/02/27 04:12:42;;;;;;;;;3.00;3.00;;;;;18.32;33.59;102232.66;5071643;28;51689;-52
2022/02/27 04:15:08;;;;;;;;;3.00;2.25;;;;;18.32;33.61;102229.91;5072547;28;51175;-51
2022/02/27 04:17:34;;;;;;;;;1.00;1.00;;;;;18.30;33.69;102227.34;5078566;28;51020;-50
2022/02/27 04:19:59;;;;;;;;;4.00;4.00;;;;;18.30;33.79;102232.00;5078989;28;51209;-51
2022/02/27 04:22:25;;;;;;;;;1.00;1.00;;;;;18.28;33.53;102226.69;5077342;28;51959;-52
2022/02/27 04:24:51;;;;;;;;;1.00;1.00;;;;;18.28;33.56;102228.56;5060129;28;51398;-51
2022/02/27 04:27:16;;;;;;;;;4.00;4.00;;;;;18.27;33.67;102224.13;5058340;28;51065;-51
2022/02/27 04:29:42;;;;;;;;;2.00;2.00;;;;;18.25;33.71;102221.56;5078949;27;51358;-48
2022/02/27 04:32:08;;;;;;;;;1.25;1.25;;;;;18.25;33.91;102217.94;5078050;27;51853;-48
2022/02/27 04:34:34;;;;;;;;;1.00;1.00;;;;;18.24;33.59;102224.47;5059020;28;51483;-49
2022/02/27 04:36:59;;;;;;;;;2.75;2.00;;;;;18.23;33.79;102229.06;5057848;28;51272;-48
2022/02/27 04:39:24;;;;;;;;;1.75;1.75;;;;;18.22;33.73;102227.38;5070124;28;51446;-48
2022/02/27 04:41:50;;;;;;;;;1.50;1.50;;;;;18.21;33.82;102222.91;5078033;28;51030;-47
2022/02/27 04:44:15;;;;;;;;;2.25;2.25;;;;;18.19;33.98;102222.25;5059158;28;51164;-48
2022/02/27 04:46:41;;;;;;;;;2.00;2.00;;;;;18.18;33.57;102224.13;5058239;28;51060;-49
2022/02/27 04:49:06;;;;;;;;;3.25;2.50;;;;;18.17;33.68;102224.31;5057957;28;51200;-52
2022/02/27 04:51:31;;;;;;;;;1.75;1.75;;;;;18.16;33.85;102217.09;5057232;28;51880;-47
2022/02/27 04:53:57;;;;;;;;;1.50;1.50;;;;;18.16;33.75;102222.59;5067880;28;51093;-49
2022/02/27 04:56:22;;;;;;;;;3.50;2.00;;;;;18.16;33.80;102214.38;5058055;28;51315;-48
2022/02/27 04:58:48;;;;;;;;;3.75;3.00;;;;;18.14;33.75;102208.19;5057875;28;51029;-48
2022/02/27 05:01:13;;;;;;;;;2.00;2.00;;;;;18.13;33.76;102212.84;5057310;28;52745;-49
2022/02/27 05:03:38;;;;;;;;;2.50;1.50;;;;;18.12;33.77;102216.56;5068812;28;51068;-52
2022/02/27 05:06:04;;;;;;;;;2.75;2.75;;;;;18.11;33.66;102211.28;5058278;28;51224;-50
2022/02/27 05:08:29;;;;;;;;;2.00;2.00;;;;;18.11;33.64;102211.28;5057837;28;50946;-48
2022/02/27 05:10:55;;;;;;;;;2.00;1.00;;;;;18.10;33.51;102209.56;5067238;28;51081;-49
2022/02/27 05:13:20;;;;;;;;;3.00;2.00;;;;;18.10;33.38;102215.03;5056747;28;51021;-48
2022/02/27 05:15:45;;;;;;;;;2.00;1.25;;;;;18.10;33.45;102217.78;5070167;28;50986;-47
2022/02/27 05:18:11;;;;;;;;;3.75;2.25;;;;;18.09;33.70;102213.34;5077866;28;50959;-51
2022/02/27 05:20:36;;;;;;;;;3.75;2.00;;;;;18.08;33.95;102217.13;5069862;28;50983;-49
2022/02/27 05:23:02;;;;;;;;;2.00;2.00;;;;;18.06;33.54;102217.28;5071197;28;50991;-51
2022/02/27 05:25:27;;;;;;;;;2.00;2.00;;;;;18.06;33.56;102214.53;5077067;28;51163;-48
2022/02/27 05:27:54;;;;;;;;;2.00;2.00;;;;;18.05;33.78;102210.09;5077630;28;51311;-51
2022/02/27 05:30:21;;;;;;;;;1.25;1.25;;;;;18.05;33.73;102211.97;5078162;27;51953;-49
2022/02/27 05:32:47;;;;;;;;;1.50;1.50;;;;;18.04;33.63;102207.53;5064306;28;51143;-50
2022/02/27 05:35:13;;;;;;;;;3.75;2.50;;;;;18.04;33.71;102215.75;5069014;28;51111;-52
2022/02/27 05:37:38;;;;;;;;;2.00;1.25;;;;;18.04;33.74;102204.78;5057394;28;51103;-48
2022/02/27 05:40:05;;;;;;;;;3.00;3.00;;;;;18.03;33.67;102203.94;5061083;28;51225;-52
2022/02/27 05:42:32;;;;;;;;;2.00;2.00;;;;;18.03;33.73;102203.94;5057148;28;51665;-53
2022/02/27 05:44:57;;;;;;;;;3.00;3.00;;;;;18.02;33.64;102193.13;5057888;28;51503;-51
2022/02/27 05:47:23;;;;;;;;;2.00;2.00;;;;;18.01;33.70;102197.75;5057119;28;51253;-51
2022/02/27 05:49:48;;;;;;;;;3.00;1.50;;;;;18.01;33.95;102203.22;5061189;28;51097;-52
2022/02/27 05:52:13;;;;;;;;;2.00;2.00;;;;;18.00;33.88;102207.00;5076923;28;51092;-52
2022/02/27 05:54:39;;;;;;;;;3.50;1.75;;;;;17.99;33.93;102196.22;5075690;28;51083;-53
2022/02/27 05:57:04;;;;;;;;;4.00;3.25;;;;;17.98;34.01;102191.75;5077364;28;50931;-51
2022/02/27 05:59:29;;;;;;;;;2.25;2.25;;;;;17.98;33.81;102195.34;5074518;28;51083;-51
2022/02/27 06:01:55;;;;;;;;;1.75;1.75;;;;;17.97;34.02;102199.13;5056660;28;51120;-51
2022/02/27 06:04:21;;;;;;;;;2.00;2.00;;;;;17.97;34.01;102198.28;5056808;28;51217;-52
2022/02/27 06:06:47;;;;;;;;;3.50;2.50;;;;;17.95;33.70;102197.59;5075079;28;51342;-49
2022/02/27 06:09:12;;;;;;;;;2.00;2.00;;;;;17.94;33.68;102194.00;5074124;28;52799;-51
2022/02/27 06:11:37;;;;;;;;;2.75;2.75;;;;;17.94;33.63;102195.88;5073978;28;51234;-51
2022/02/27 06:14:03;;;;;;;;;2.25;2.00;;;;;17.93;33.76;102202.41;5077073;28;51072;-51
2022/02/27 06:16:29;;;;;;;;;3.25;3.25;;;;;17.92;33.65;102189.69;5075228;28;51206;-52
2022/02/27 06:18:55;;;;;;;;;3.00;2.00;;;;;17.91;33.99;102191.59;5076477;28;51835;-51
2022/02/27 06:21:20;;;;;;;;;2.00;2.00;;;;;17.91;34.05;102199.81;5056610;28;50977;-50
2022/02/27 06:23:46;;;;;;;;;3.50;2.75;;;;;17.89;33.74;102194.50;5074680;28;51165;-52
2022/02/27 06:26:11;;;;;;;;;3.75;0.75;;;;;17.88;33.94;102192.78;5076215;27;51136;-51
2022/02/27 06:28:37;;;;;;;;;3.25;1.50;;;;;17.88;33.73;102186.47;5077787;27;51908;-51
2022/02/27 06:31:03;;;;;;;;;1.50;1.50;;;;;17.88;33.62;102195.53;5063222;27;51050;-52
2022/02/27 06:33:28;;;;;;;;;1.75;1.75;;;;;17.87;33.70;102193.81;5055762;28;51112;-50
2022/02/27 06:35:55;;;;;;;;;2.75;2.75;;;;;17.87;33.74;102201.19;5057301;28;51123;-52
2022/02/27 06:38:21;;;;;;;;;3.25;1.50;;;;;17.85;33.86;102198.63;5059724;28;52720;-52
2022/02/27 06:40:46;;;;;;;;;2.25;2.25;;;;;17.85;33.85;102198.63;5074183;27;51108;-50
2022/02/27 06:43:12;;;;;;;;;1.50;1.50;;;;;17.84;33.55;102202.41;5075921;28;51032;-50
2022/02/27 06:45:37;;;;;;;;;1.50;1.50;;;;;17.83;33.93;102197.09;5076459;28;51062;-53
2022/02/27 06:48:03;;;;;;;;;4.75;2.25;;;;;17.82;34.02;102195.34;5073870;28;51467;-52
2022/02/27 06:50:28;;;;;;;;;2.00;2.00;;;;;17.81;33.73;102191.75;5064592;28;50901;-47
2022/02/27 06:52:54;;;;;;;;;2.25;2.25;;;;;17.81;33.53;102190.91;5055845;28;51121;-47
2022/02/27 06:55:19;;;;;;;;;3.00;2.75;;;;;17.81;33.70;102199.13;5063490;28;51504;-49
2022/02/27 06:57:46;;;;;;;;;2.00;2.00;;;;;17.80;33.86;102201.00;5074452;28;53094;-51
2022/02/27 07:00:12;;;;;;;;;4.00;4.00;;;;;17.80;33.96;102191.94;5075230;28;50960;-49
2022/02/27 07:02:39;;;;;;;;;2.00;2.00;;;;;17.79;33.74;102192.97;5076054;28;51272;-51
2022/02/27 07:05:05;;;;;;;;;3.75;3.75;;;;;17.79;33.75;102191.09;5069630;28;51483;-48
2022/02/27 07:07:30;;;;;;;;;1.50;1.50;;;;;17.78;33.77;102197.59;5056605;28;52025;-52
2022/02/27 07:10:00;;;;;;;;;2.00;2.00;;;;;17.76;33.93;102191.44;5071698;28;51037;-51
2022/02/27 07:12:29;;;;;;;;;1.75;1.75;;;;;17.76;33.60;102194.19;5076073;28;51116;-52
2022/02/27 07:14:54;;;;;;;;;3.25;2.00;;;;;17.75;33.85;102200.69;5076350;28;51227;-48
2022/02/27 07:17:19;;;;;;;;;1.75;1.75;;;;;17.75;33.75;102199.84;5075548;28;51223;-49
2022/02/27 07:19:45;;;;;;;;;2.75;0.00;;;;;17.74;33.84;102207.19;5060533;28;51077;-52
2022/02/27 07:22:10;;;;;;;;;1.75;1.75;;;;;17.72;34.00;102195.56;5055548;28;51173;-50
2022/02/27 07:24:35;;;;;;;;;1.75;1.75;;;;;17.73;33.73;102193.66;5066617;28;51156;-51
2022/02/27 07:27:01;;;;;;;;;2.50;1.50;;;;;17.72;33.80;102203.78;5057411;28;51747;-52
2022/02/27 07:29:26;;;;;;;;;2.50;1.25;;;;;17.71;33.97;102196.56;5072541;27;51039;-47
2022/02/27 07:31:52;;;;;;;;;1.50;1.50;;;;;17.71;33.84;102201.19;5095818;27;51080;-49
2022/02/27 07:34:17;;;;;;;;;1.25;1.25;;;;;17.71;33.71;102198.44;5087136;27;51391;-48
2022/02/27 07:36:43;;;;;;;;;3.25;1.25;;;;;17.71;33.62;102198.44;5076156;28;51838;-47
2022/02/27 07:39:08;;;;;;;;;3.25;3.25;;;;;17.70;33.77;102200.31;5071442;28;51287;-52
2022/02/27 07:41:33;;;;;;;;;1.50;1.50;;;;;17.70;33.93;102204.94;5070702;28;51092;-51
2022/02/27 07:43:58;;;;;;;;;1.50;1.50;;;;;17.68;33.62;102196.88;5073840;28;52613;-49
2022/02/27 07:46:24;;;;;;;;;4.00;2.25;;;;;17.68;33.90;102199.63;5058767;28;51817;-49
2022/02/27 07:48:50;;;;;;;;;2.50;1.25;;;;;17.67;33.57;102199.78;5058845;28;51043;-49
2022/02/27 07:51:16;;;;;;;;;2.00;1.00;;;;;17.66;33.88;102198.94;5059028;28;50977;-52
2022/02/27 07:53:42;;;;;;;;;5.00;2.00;;;;;17.66;33.86;102209.03;5061088;28;51305;-48
2022/02/27 07:56:07;;;;;;;;;2.50;2.00;;;;;17.66;33.70;102206.31;5063886;28;51168;-46
2022/02/27 07:58:32;;;;;;;;;1.50;1.50;;;;;17.67;34.36;102208.00;5061638;28;51143;-53
2022/02/27 08:00:58;;;;;;;;;2.00;1.00;;;;;17.70;35.41;102213.19;5057679;28;51258;-49
2022/02/27 08:03:23;;;;;;;;;1.75;1.75;;;;;17.72;34.71;102208.41;5067273;28;51231;-51
2022/02/27 08:05:49;;;;;;;;;2.00;2.00;;;;;17.72;34.80;102209.25;5068917;28;51112;-49
2022/02/27 08:08:14;;;;;;;;;2.25;1.75;;;;;17.73;34.68;102213.72;5065175;28;51222;-51
2022/02/27 08:10:39;;;;;;;;;2.25;2.25;;;;;17.72;34.83;102220.22;5068589;28;51078;-51
2022/02/27 08:13:05;;;;;;;;;4.00;4.00;;;;;17.72;31.76;102222.13;5058544;28;51200;-50
2022/02/27 08:15:30;;;;;;;;;4.25;3.00;;;;;17.63;31.24;102215.72;5058233;28;52220;-52
2022/02/27 08:17:55;;;;;;;;;7.00;3.00;;;;;17.56;31.04;102210.06;5058127;28;51173;-50
2022/02/27 08:20:21;;;;;;;;;4.00;4.00;;;;;17.56;30.79;102215.53;5057764;28;51127;-50
2022/02/27 08:22:46;;;;;;;;;2.75;2.00;;;;;17.62;30.85;102215.91;5059599;28;51293;-52
2022/02/27 08:25:15;;;;;;;;;2.75;2.50;;;;;17.68;31.25;102223.44;5062908;28;51154;-51
2022/02/27 08:27:42;;;;;;;;;3.00;2.50;;;;;17.76;31.27;102218.84;5063569;28;51410;-52
2022/02/27 08:30:08;;;;;;;;;1.75;1.75;;;;;17.85;31.38;102223.31;5073474;27;51001;-51
2022/02/27 08:32:34;;;;;;;;;3.00;3.00;;;;;17.95;31.80;102222.28;5076399;28;51092;-51
2022/02/27 08:35:01;;;;;;;;;2.50;2.25;;;;;18.04;32.00;102229.47;5078399;27;51074;-52
2022/02/27 08:37:27;;;;;;;;;5.00;3.00;;;;;18.13;31.90;102233.88;5072423;27;51277;-51
2022/02/27 08:39:53;;;;;;;;;2.75;2.75;;;;;18.23;32.30;102234.56;5065332;28;51779;-52
2022/02/27 08:42:18;;;;;;;;;3.50;1.00;;;;;18.32;32.59;102235.41;5057476;28;51207;-51
2022/02/27 08:44:44;;;;;;;;;1.50;1.50;;;;;18.40;32.79;102247.22;5057896;28;52148;-51
2022/02/27 08:47:09;;;;;;;;;2.00;1.25;;;;;18.49;32.65;102238.97;5056311;28;51092;-53
2022/02/27 08:49:35;;;;;;;;;2.00;2.00;;;;;18.58;32.64;102240.69;5073221;28;51302;-50
2022/02/27 08:52:00;;;;;;;;;1.25;1.25;;;;;18.66;32.64;102237.94;5060724;28;51294;-47
2022/02/27 08:54:26;;;;;;;;;3.25;2.00;;;;;18.74;32.27;102233.25;5065429;27;51191;-53
2022/02/27 08:56:52;;;;;;;;;2.75;2.25;;;;;18.83;32.28;102234.09;5075672;28;51073;-50
2022/02/27 08:59:17;;;;;;;;;3.00;3.00;;;;;18.91;32.00;102236.81;5059149;28;51225;-52
2022/02/27 09:01:43;;;;;;;;;1.50;1.50;;;;;18.99;32.31;102236.78;5065309;28;52142;-52
2022/02/27 09:04:08;;;;;;;;;1.50;1.50;;;;;19.07;32.03;102241.38;5068390;28;51105;-53
2022/02/27 09:06:34;;;;;;;;;3.00;3.00;;;;;19.15;31.81;102237.72;5075173;28;51043;-50
2022/02/27 09:08:59;;;;;;;;;0.75;0.75;;;;;19.21;31.79;102245.25;5065919;28;51085;-51
2022/02/27 09:11:24;;;;;;;;;5.00;1.25;;;;;19.28;31.53;102249.84;5061758;27;51107;-52
2022/02/27 09:13:50;;;;;;;;;1.75;1.75;;;;;19.33;31.65;102255.63;5071049;27;51838;-48
2022/02/27 09:16:15;;;;;;;;;3.00;1.50;;;;;19.42;31.74;102253.69;5062162;28;51250;-47
2022/02/27 09:18:41;;;;;;;;;1.25;0.25;;;;;19.49;31.49;102248.34;5061435;28;51652;-49
2022/02/27 09:21:07;;;;;;;;;1.75;1.75;;;;;19.57;31.31;102251.91;5060123;28;51190;-48
2022/02/27 09:23:34;;;;;;;;;2.25;2.25;;;;;19.64;31.50;102248.44;5067415;27;52239;-47
2022/02/27 09:26:00;;;;;;;;;2.75;2.00;;;;;19.71;31.38;102242.03;5067903;28;51386;-49
2022/02/27 09:28:25;;;;;;;;;2.75;1.75;;;;;19.77;31.54;102240.41;5064837;27;51089;-51
2022/02/27 09:30:51;;;;;;;;;4.00;1.25;;;;;19.84;31.64;102238.66;5074210;28;51901;-50
2022/02/27 09:33:16;;;;;;;;;2.00;1.00;;;;;19.91;31.30;102247.03;5075400;27;51121;-52
2022/02/27 09:35:41;;;;;;;;;3.00;3.00;;;;;19.97;31.20;102247.13;5075318;27;51076;-48
2022/02/27 09:38:08;;;;;;;;;2.50;1.75;;;;;20.03;31.10;102240.03;5064521;27;51156;-47
2022/02/27 09:40:33;;;;;;;;;2.25;2.25;;;;;20.07;31.45;102236.72;5057044;28;51378;-49
2022/02/27 09:42:59;;;;;;;;;2.75;2.75;;;;;20.12;31.36;102239.78;5056638;28;51770;-49
2022/02/27 09:45:25;;;;;;;;;4.75;4.00;;;;;20.18;30.88;102241.78;5054905;28;51030;-48
2022/02/27 09:47:53;;;;;;;;;4.50;3.00;;;;;20.24;30.81;102242.09;5058504;28;51817;-47
2022/02/27 09:50:20;;;;;;;;;3.25;2.75;;;;;20.28;30.84;102238.75;5062746;27;51262;-51
2022/02/27 09:52:46;;;;;;;;;3.75;2.25;;;;;20.33;30.89;102247.31;5063625;27;54064;-47
2022/02/27 09:55:14;;;;;;;;;3.25;3.25;;;;;20.40;31.20;102241.91;5068474;27;51141;-49
2022/02/27 09:57:42;;;;;;;;;3.25;3.00;;;;;20.46;31.29;102231.03;5074979;27;51969;-49
2022/02/27 10:00:08;;;;;;;;;4.75;4.00;;;;;20.55;31.39;102228.19;5090376;27;51164;-49
2022/02/27 10:02:34;;;;;;;;;7.75;3.75;;;;;20.62;31.37;102235.47;5078522;27;52938;-50
2022/02/27 10:05:01;;;;;;;;;4.00;4.00;;;;;20.68;31.57;102220.13;5070252;28;51061;-51
2022/02/27 10:07:26;;;;;;;;;3.00;3.00;;;;;20.75;31.03;102221.94;5071933;28;51316;-49
2022/02/27 10:10:05;;;;;;;;;3.00;3.00;;;;;20.83;31.45;102220.09;5074214;27;50957;-51
2022/02/27 10:12:30;;;;;;;;;5.50;3.50;;;;;20.88;31.83;102224.00;5055386;28;51063;-48
2022/02/27 10:15:05;;;;;;;;;3.50;3.00;;;;;20.97;31.90;102238.53;5055247;28;51317;-52
2022/02/27 10:17:36;;;;;;;;;4.50;2.75;;;;;21.02;32.31;102225.00;5062552;28;51194;-50
2022/02/27 10:20:11;;;;;;;;;5.00;4.00;;;;;21.06;32.16;102223.59;5067366;28;50989;-51
2022/02/27 10:22:39;;;;;;;;;4.00;4.00;;;;;21.10;32.04;102227.66;5055925;28;50966;-52
2022/02/27 10:25:11;;;;;;;;;3.25;3.00;;;;;21.14;31.93;102225.34;5071610;28;51063;-50
2022/02/27 10:27:40;;;;;;;;;5.00;3.25;;;;;21.14;32.27;102226.22;5058986;28;51174;-51
2022/02/27 10:30:33;;;;;;;;;4.25;4.00;;;;;21.16;32.34;102232.41;5061607;27;51372;-51
2022/02/27 10:33:03;;;;;;;;;5.50;2.50;;;;;21.13;32.46;102227.25;5061185;28;51164;-51
2022/02/27 10:35:36;;;;;;;;;7.00;6.00;;;;;21.13;32.26;102232.78;5064752;28;51111;-53
2022/02/27 10:38:02;;;;;;;;;6.25;6.00;;;;;21.09;32.02;102222.34;5054157;28;51480;-52
2022/02/27 10:40:33;;;;;;;;;10.25;10.25;;;;;21.05;32.03;102221.88;5058944;28;51167;-52
2022/02/27 10:43:00;;;;;;;;;16.00;13.00;;;;;21.01;31.76;102234.31;5056661;28;52039;-53
2022/02/27 10:45:26;;;;;;;;;12.00;12.00;;;;;20.98;31.66;102234.72;5073674;28;51396;-50
2022/02/27 10:48:07;;;;;;;;;17.00;10.50;;;;;20.94;31.68;102233.38;5075793;27;51127;-52
2022/02/27 10:50:33;;;;;;;;;10.50;10.50;;;;;20.91;31.74;102223.59;5075469;28;51222;-52
2022/02/27 10:52:59;;;;;;;;;7.25;7.25;;;;;20.88;31.50;102221.25;5075365;28;50998;-52
2022/02/27 10:55:26;;;;;;;;;9.25;8.25;;;;;20.87;31.78;102224.19;5069010;28;51179;-51
2022/02/27 10:57:52;;;;;;;;;10.25;8.00;;;;;20.83;31.38;102223.69;5070844;28;51195;-53
2022/02/27 11:00:24;;;;;;;;;8.00;7.00;;;;;20.80;31.51;102229.59;5055940;28;51024;-52
2022/02/27 11:02:52;;;;;;;;;7.75;6.50;;;;;20.78;31.34;102225.34;5055136;28;52020;-52
2022/02/27 11:05:23;;;;;;;;;9.50;6.50;;;;;20.75;31.49;102219.16;5056265;28;51583;-52
2022/02/27 11:07:51;;;;;;;;;14.00;8.75;;;;;20.73;31.74;102220.38;5071032;28;51188;-51
2022/02/27 11:10:19;;;;;;;;;9.75;7.50;;;;;20.71;31.43;102225.22;5055400;28;51310;-52
2022/02/27 11:12:45;;;;;;;;;9.00;7.75;;;;;20.67;31.34;102229.44;5054340;28;51739;-50
2022/02/27 11:15:13;;;;;;;;;6.25;6.25;;;;;20.64;30.98;102221.56;5055491;28;50985;-51
2022/02/27 11:17:41;;;;;;;;;8.25;7.00;;;;;20.61;31.13;102227.41;5055915;27;51188;-53
2022/02/27 11:20:08;;;;;;;;;9.75;6.50;;;;;20.59;30.98;102235.88;5055143;28;51472;-53